createdAt,value
2023-05-21T00:01:23.683Z,1013.12
2023-05-21T00:02:23.788Z,1013.13
2023-05-21T00:03:23.849Z,1013.11
2023-05-21T00:04:24.137Z,1013.07
2023-05-21T00:05:24.113Z,1013.07
2023-05-21T00:06:23.898Z,1013.07
2023-05-21T00:07:23.864Z,1013.05
2023-05-21T00:08:23.886Z,1013.06
2023-05-21T00:09:23.920Z,1013.04
2023-05-21T00:10:23.946Z,1013.05
2023-05-21T00:11:23.967Z,1013.04
2023-05-21T00:12:24.254Z,1013.05
2023-05-21T00:14:24.170Z,1013.03
2023-05-21T00:15:24.086Z,1013.05
2023-05-21T00:16:24.162Z,1013.06
2023-05-21T00:17:24.227Z,1013.02
2023-05-21T00:18:24.281Z,1013.00
2023-05-21T00:19:24.587Z,1012.97
2023-05-21T00:20:24.562Z,1012.98
2023-05-21T00:21:24.266Z,1012.95
2023-05-21T00:23:24.348Z,1012.96
2023-05-21T00:24:24.350Z,1012.94
2023-05-21T00:25:24.377Z,1012.93
2023-05-21T00:26:24.657Z,1012.91
2023-05-21T00:28:24.473Z,1012.90
2023-05-21T00:31:24.621Z,1012.85
2023-05-21T00:32:24.631Z,1012.90
2023-05-21T00:33:24.923Z,1012.89
2023-05-21T00:34:24.643Z,1012.88
2023-05-21T00:35:24.669Z,1012.85
2023-05-21T00:36:24.830Z,1012.87
2023-05-21T00:37:24.743Z,1012.84
2023-05-21T00:38:24.759Z,1012.83
2023-05-21T00:39:24.782Z,1012.84
2023-05-21T00:40:25.111Z,1012.82
2023-05-21T00:41:24.855Z,1012.83
2023-05-21T00:42:24.876Z,1012.82
2023-05-21T00:43:24.898Z,1012.82
2023-05-21T00:44:24.925Z,1012.80
2023-05-21T00:45:24.956Z,1012.82
2023-05-21T00:46:25.285Z,1012.81
2023-05-21T00:47:25.054Z,1012.79
2023-05-21T00:48:25.069Z,1012.77
2023-05-21T00:49:25.074Z,1012.78
2023-05-21T00:50:25.153Z,1012.74
2023-05-21T00:51:25.138Z,1012.78
2023-05-21T00:52:25.438Z,1012.73
2023-05-21T00:53:25.197Z,1012.71
2023-05-21T00:55:25.269Z,1012.69
2023-05-21T00:56:25.275Z,1012.71
2023-05-21T00:57:25.312Z,1012.68
2023-05-21T00:58:25.581Z,1012.64
2023-05-21T00:59:25.362Z,1012.66
2023-05-21T01:00:25.401Z,1012.65
2023-05-21T01:01:25.472Z,1012.68
2023-05-21T01:02:25.561Z,1012.66
2023-05-21T01:03:25.586Z,1012.70
2023-05-21T01:04:25.516Z,1012.71
2023-05-21T01:05:25.850Z,1012.68
2023-05-21T01:06:25.590Z,1012.72
2023-05-21T01:07:25.597Z,1012.73
2023-05-21T01:09:25.679Z,1012.71
2023-05-21T01:10:25.681Z,1012.73
2023-05-21T01:11:25.711Z,1012.71
2023-05-21T01:12:26.045Z,1012.72
2023-05-21T01:13:25.772Z,1012.71
2023-05-21T01:14:25.798Z,1012.70
2023-05-21T01:17:25.907Z,1012.69
2023-05-21T01:18:25.952Z,1012.66
2023-05-21T01:20:26.231Z,1012.62
2023-05-21T01:21:26.006Z,1012.63
2023-05-21T01:23:26.059Z,1012.66
2023-05-21T01:24:26.092Z,1012.64
2023-05-21T01:25:26.152Z,1012.63
2023-05-21T01:26:26.153Z,1012.65
2023-05-21T01:27:26.477Z,1012.62
2023-05-21T01:28:26.213Z,1012.61
2023-05-21T01:29:26.262Z,1012.64
2023-05-21T01:30:26.277Z,1012.60
2023-05-21T01:31:26.300Z,1012.58
2023-05-21T01:32:26.339Z,1012.59
2023-05-21T01:33:26.732Z,1012.55
2023-05-21T01:34:26.679Z,1012.55
2023-05-21T01:35:26.411Z,1012.59
2023-05-21T01:36:26.441Z,1012.57
2023-05-21T01:37:26.466Z,1012.60
2023-05-21T01:38:26.507Z,1012.53
2023-05-21T01:39:26.526Z,1012.59
2023-05-21T01:40:26.559Z,1012.57
2023-05-21T01:41:26.611Z,1012.55
2023-05-21T01:42:26.624Z,1012.52
2023-05-21T01:43:26.653Z,1012.50
2023-05-21T01:44:26.671Z,1012.50
2023-05-21T01:45:26.697Z,1012.51
2023-05-21T01:46:26.764Z,1012.52
2023-05-21T01:47:27.090Z,1012.52
2023-05-21T01:48:26.799Z,1012.50
2023-05-21T01:49:26.835Z,1012.54
2023-05-21T01:50:26.844Z,1012.46
2023-05-21T01:51:26.876Z,1012.48
2023-05-21T01:52:26.908Z,1012.48
2023-05-21T01:53:27.039Z,1012.45
2023-05-21T01:54:27.270Z,1012.45
2023-05-21T01:55:27.005Z,1012.46
2023-05-21T01:56:27.029Z,1012.48
2023-05-21T01:57:27.090Z,1012.46
2023-05-21T01:58:27.088Z,1012.50
2023-05-21T01:59:27.112Z,1012.54
2023-05-21T02:00:27.144Z,1012.47
2023-05-21T02:01:27.515Z,1012.47
2023-05-21T02:02:27.237Z,1012.47
2023-05-21T02:03:27.638Z,1012.44
2023-05-21T02:05:27.304Z,1012.45
2023-05-21T02:06:27.322Z,1012.42
2023-05-21T02:07:27.346Z,1012.44
2023-05-21T02:09:27.705Z,1012.40
2023-05-21T02:11:27.460Z,1012.41
2023-05-21T02:12:27.490Z,1012.42
2023-05-21T02:13:27.541Z,1012.36
2023-05-21T02:14:27.549Z,1012.42
2023-05-21T02:15:27.587Z,1012.39
2023-05-21T02:16:27.944Z,1012.41
2023-05-21T02:17:27.648Z,1012.42
2023-05-21T02:18:27.660Z,1012.42
2023-05-21T02:19:27.885Z,1012.43
2023-05-21T02:21:27.757Z,1012.41
2023-05-21T02:22:27.787Z,1012.41
2023-05-21T02:23:28.060Z,1012.44
2023-05-21T02:25:27.874Z,1012.36
2023-05-21T02:26:27.896Z,1012.39
2023-05-21T02:27:27.927Z,1012.39
2023-05-21T02:28:27.958Z,1012.40
2023-05-21T02:30:28.342Z,1012.36
2023-05-21T02:31:28.040Z,1012.38
2023-05-21T02:32:28.113Z,1012.37
2023-05-21T02:33:28.099Z,1012.35
2023-05-21T02:34:28.156Z,1012.38
2023-05-21T02:35:28.166Z,1012.35
2023-05-21T02:36:28.189Z,1012.33
2023-05-21T02:37:28.513Z,1012.33
2023-05-21T02:38:28.357Z,1012.36
2023-05-21T02:39:28.271Z,1012.32
2023-05-21T02:40:28.314Z,1012.32
2023-05-21T02:41:28.335Z,1012.31
2023-05-21T02:42:28.359Z,1012.31
2023-05-21T02:43:28.387Z,1012.30
2023-05-21T02:44:28.731Z,1012.31
2023-05-21T02:45:28.445Z,1012.26
2023-05-21T02:46:28.664Z,1012.23
2023-05-21T02:47:28.533Z,1012.23
2023-05-21T02:48:28.531Z,1012.18
2023-05-21T02:49:28.558Z,1012.21
2023-05-21T02:50:28.584Z,1012.19
2023-05-21T02:51:28.920Z,1012.19
2023-05-21T02:52:28.677Z,1012.19
2023-05-21T02:55:28.832Z,1012.23
2023-05-21T02:56:28.861Z,1012.20
2023-05-21T02:57:28.793Z,1012.20
2023-05-21T02:58:29.117Z,1012.22
2023-05-21T02:59:28.847Z,1012.23
2023-05-21T03:00:28.981Z,1012.20
2023-05-21T03:01:28.958Z,1012.23
2023-05-21T03:02:29.004Z,1012.20
2023-05-21T03:03:29.044Z,1012.20
2023-05-21T03:04:29.298Z,1012.20
2023-05-21T03:05:29.017Z,1012.18
2023-05-21T03:06:29.049Z,1012.18
2023-05-21T03:07:29.335Z,1012.20
2023-05-21T03:08:29.121Z,1012.23
2023-05-21T03:09:29.196Z,1012.20
2023-05-21T03:10:29.468Z,1012.20
2023-05-21T03:11:29.251Z,1012.20
2023-05-21T03:13:29.272Z,1012.23
2023-05-21T03:14:29.284Z,1012.21
2023-05-21T03:15:29.310Z,1012.20
2023-05-21T03:16:29.696Z,1012.21
2023-05-21T03:17:29.378Z,1012.17
2023-05-21T03:18:29.525Z,1012.15
2023-05-21T03:19:29.467Z,1012.11
2023-05-21T03:20:29.458Z,1012.11
2023-05-21T03:21:29.540Z,1012.13
2023-05-21T03:22:29.546Z,1012.06
2023-05-21T03:23:29.787Z,1012.05
2023-05-21T03:24:29.574Z,1012.06
2023-05-21T03:25:29.598Z,1012.07
2023-05-21T03:26:29.639Z,1012.03
2023-05-21T03:27:29.768Z,1012.05
2023-05-21T03:28:29.688Z,1012.06
2023-05-21T03:29:29.714Z,1012.04
2023-05-21T03:30:30.051Z,1012.05
2023-05-21T03:31:29.800Z,1012.05
2023-05-21T03:32:29.823Z,1012.07
2023-05-21T03:37:29.970Z,1012.09
2023-05-21T03:39:30.020Z,1012.12
2023-05-21T03:40:30.035Z,1012.09
2023-05-21T03:41:30.088Z,1012.13
2023-05-21T03:42:30.137Z,1012.10
2023-05-21T03:43:30.164Z,1012.17
2023-05-21T03:44:30.253Z,1012.16
2023-05-21T03:45:30.478Z,1012.16
2023-05-21T03:46:30.243Z,1012.16
2023-05-21T03:47:30.272Z,1012.09
2023-05-21T03:48:30.267Z,1012.14
2023-05-21T03:49:30.290Z,1012.09
2023-05-21T03:50:30.323Z,1012.08
2023-05-21T03:51:30.376Z,1012.11
2023-05-21T03:52:30.678Z,1012.10
2023-05-21T03:53:30.431Z,1012.08
2023-05-21T03:54:30.435Z,1012.12
2023-05-21T03:55:30.468Z,1012.13
2023-05-21T03:56:30.598Z,1012.12
2023-05-21T03:57:30.531Z,1012.12
2023-05-21T03:58:30.559Z,1012.13
2023-05-21T03:59:30.881Z,1012.14
2023-05-21T04:00:30.608Z,1012.12
2023-05-21T04:01:30.638Z,1012.13
2023-05-21T04:02:30.799Z,1012.16
2023-05-21T04:04:30.804Z,1012.13
2023-05-21T04:05:31.059Z,1012.17
2023-05-21T04:06:31.430Z,1012.17
2023-05-21T04:07:30.818Z,1012.16
2023-05-21T04:09:31.001Z,1012.19
2023-05-21T04:10:30.919Z,1012.22
2023-05-21T04:11:30.923Z,1012.24
2023-05-21T04:12:30.951Z,1012.22
2023-05-21T04:13:31.281Z,1012.23
2023-05-21T04:14:31.022Z,1012.22
2023-05-21T04:15:31.036Z,1012.21
2023-05-21T04:16:31.237Z,1012.18
2023-05-21T04:17:31.168Z,1012.16
2023-05-21T04:18:31.133Z,1012.14
2023-05-21T04:19:31.340Z,1012.12
2023-05-21T04:21:31.216Z,1012.14
2023-05-21T04:22:31.250Z,1012.17
2023-05-21T04:23:31.283Z,1012.14
2023-05-21T04:24:31.317Z,1012.13
2023-05-21T04:25:31.375Z,1012.15
2023-05-21T04:26:31.363Z,1012.12
2023-05-21T04:27:31.696Z,1012.13
2023-05-21T04:28:31.416Z,1012.11
2023-05-21T04:31:31.573Z,1012.15
2023-05-21T04:32:31.561Z,1012.15
2023-05-21T04:33:31.566Z,1012.17
2023-05-21T04:34:31.983Z,1012.17
2023-05-21T04:35:31.617Z,1012.14
2023-05-21T04:36:31.645Z,1012.15
2023-05-21T04:37:31.684Z,1012.18
2023-05-21T04:38:31.703Z,1012.20
2023-05-21T04:39:31.736Z,1012.18
2023-05-21T04:40:31.830Z,1012.21
2023-05-21T04:41:32.133Z,1012.22
2023-05-21T04:42:31.841Z,1012.21
2023-05-21T04:43:31.850Z,1012.22
2023-05-21T04:44:31.882Z,1012.26
2023-05-21T04:45:31.914Z,1012.24
2023-05-21T04:46:31.990Z,1012.24
2023-05-21T04:47:32.001Z,1012.23
2023-05-21T04:48:32.246Z,1012.25
2023-05-21T04:50:32.075Z,1012.21
2023-05-21T04:52:32.110Z,1012.19
2023-05-21T04:53:32.158Z,1012.19
2023-05-21T04:54:32.197Z,1012.14
2023-05-21T04:56:32.621Z,1012.14
2023-05-21T04:57:32.274Z,1012.12
2023-05-21T04:58:32.361Z,1012.13
2023-05-21T04:59:32.307Z,1012.10
2023-05-21T05:00:32.409Z,1012.10
2023-05-21T05:01:32.381Z,1012.09
2023-05-21T05:02:32.422Z,1012.11
2023-05-21T05:03:32.766Z,1012.11
2023-05-21T05:04:32.468Z,1012.14
2023-05-21T05:05:32.492Z,1012.18
2023-05-21T05:06:32.552Z,1012.16
2023-05-21T05:07:32.546Z,1012.17
2023-05-21T05:08:32.580Z,1012.18
2023-05-21T05:09:32.614Z,1012.16
2023-05-21T05:10:32.649Z,1012.20
2023-05-21T05:11:32.655Z,1012.21
2023-05-21T05:12:32.711Z,1012.17
2023-05-21T05:13:32.769Z,1012.18
2023-05-21T05:14:32.748Z,1012.20
2023-05-21T05:15:32.768Z,1012.22
2023-05-21T05:16:33.096Z,1012.23
2023-05-21T05:17:32.848Z,1012.23
2023-05-21T05:18:32.858Z,1012.20
2023-05-21T05:20:32.912Z,1012.21
2023-05-21T05:21:32.950Z,1012.20
2023-05-21T05:22:32.974Z,1012.19
2023-05-21T05:24:33.028Z,1012.20
2023-05-21T05:25:33.056Z,1012.18
2023-05-21T05:26:33.091Z,1012.21
2023-05-21T05:27:33.115Z,1012.22
2023-05-21T05:28:33.154Z,1012.19
2023-05-21T05:30:33.256Z,1012.17
2023-05-21T05:32:33.299Z,1012.21
2023-05-21T05:33:33.328Z,1012.18
2023-05-21T05:35:33.407Z,1012.20
2023-05-21T05:36:33.374Z,1012.21
2023-05-21T05:37:33.524Z,1012.19
2023-05-21T05:38:33.431Z,1012.16
2023-05-21T05:39:33.466Z,1012.15
2023-05-21T05:40:33.488Z,1012.18
2023-05-21T05:41:33.821Z,1012.13
2023-05-21T05:42:33.547Z,1012.16
2023-05-21T05:43:33.582Z,1012.15
2023-05-21T05:44:33.614Z,1012.16
2023-05-21T05:45:33.660Z,1012.15
2023-05-21T05:46:33.729Z,1012.16
2023-05-21T05:47:33.751Z,1012.15
2023-05-21T05:48:33.971Z,1012.13
2023-05-21T05:50:33.782Z,1012.19
2023-05-21T05:51:33.805Z,1012.15
2023-05-21T05:52:33.959Z,1012.17
2023-05-21T05:53:33.872Z,1012.19
2023-05-21T05:54:33.906Z,1012.17
2023-05-21T05:56:34.043Z,1012.15
2023-05-21T05:57:33.991Z,1012.19
2023-05-21T05:58:34.108Z,1012.18
2023-05-21T05:59:34.044Z,1012.19
2023-05-21T06:00:34.105Z,1012.14
2023-05-21T06:01:34.129Z,1012.15
2023-05-21T06:02:34.547Z,1012.18
2023-05-21T06:03:34.316Z,1012.16
2023-05-21T06:04:34.180Z,1012.15
2023-05-21T06:05:34.355Z,1012.15
2023-05-21T06:06:34.254Z,1012.09
2023-05-21T06:07:34.270Z,1012.12
2023-05-21T06:09:34.331Z,1012.10
2023-05-21T06:10:34.663Z,1012.14
2023-05-21T06:11:34.392Z,1012.13
2023-05-21T06:12:34.417Z,1012.11
2023-05-21T06:13:34.452Z,1012.13
2023-05-21T06:14:34.477Z,1012.20
2023-05-21T06:15:34.650Z,1012.17
2023-05-21T06:16:34.580Z,1012.20
2023-05-21T06:17:34.590Z,1012.15
2023-05-21T06:18:34.644Z,1012.15
2023-05-21T06:19:34.660Z,1012.16
2023-05-21T06:20:34.653Z,1012.16
2023-05-21T06:21:34.686Z,1012.17
2023-05-21T06:22:34.709Z,1012.15
2023-05-21T06:23:35.037Z,1012.19
2023-05-21T06:24:34.768Z,1012.14
2023-05-21T06:25:35.196Z,1012.13
2023-05-21T06:26:34.827Z,1012.11
2023-05-21T06:27:34.867Z,1012.12
2023-05-21T06:29:34.909Z,1012.09
2023-05-21T06:30:35.192Z,1012.09
2023-05-21T06:31:34.968Z,1012.11
2023-05-21T06:32:35.051Z,1012.10
2023-05-21T06:33:35.081Z,1012.04
2023-05-21T06:34:35.092Z,1012.00
2023-05-21T06:35:35.436Z,1012.01
2023-05-21T06:36:35.127Z,1012.01
2023-05-21T06:39:35.202Z,1012.02
2023-05-21T06:40:35.234Z,1011.92
2023-05-21T06:41:35.261Z,1011.94
2023-05-21T06:42:35.291Z,1011.94
2023-05-21T06:44:35.359Z,1011.97
2023-05-21T06:45:35.914Z,1011.97
2023-05-21T06:48:35.471Z,1011.97
2023-05-21T06:49:35.497Z,1011.98
2023-05-21T06:50:35.558Z,1011.97
2023-05-21T06:51:35.556Z,1011.95
2023-05-21T06:52:35.896Z,1011.93
2023-05-21T06:53:35.619Z,1011.97
2023-05-21T06:54:35.644Z,1012.00
2023-05-21T06:55:35.851Z,1012.04
2023-05-21T06:56:35.804Z,1012.03
2023-05-21T06:57:35.845Z,1012.06
2023-05-21T06:58:35.771Z,1012.06
2023-05-21T06:59:36.099Z,1012.07
2023-05-21T07:00:35.819Z,1012.07
2023-05-21T07:01:35.899Z,1012.11
2023-05-21T07:02:36.065Z,1012.08
2023-05-21T07:03:35.944Z,1012.16
2023-05-21T07:04:35.938Z,1012.18
2023-05-21T07:05:36.186Z,1012.18
2023-05-21T07:06:36.315Z,1012.15
2023-05-21T07:07:36.022Z,1012.11
2023-05-21T07:08:36.049Z,1012.13
2023-05-21T07:11:36.142Z,1012.16
2023-05-21T07:14:36.530Z,1012.21
2023-05-21T07:15:36.436Z,1012.23
2023-05-21T07:16:36.321Z,1012.23
2023-05-21T07:18:36.343Z,1012.25
2023-05-21T07:19:36.370Z,1012.24
2023-05-21T07:20:36.413Z,1012.22
2023-05-21T07:21:36.739Z,1012.28
2023-05-21T07:22:36.479Z,1012.26
2023-05-21T07:23:36.504Z,1012.26
2023-05-21T07:24:36.536Z,1012.27
2023-05-21T07:25:36.743Z,1012.31
2023-05-21T07:26:36.605Z,1012.30
2023-05-21T07:27:36.627Z,1012.32
2023-05-21T07:29:36.665Z,1012.31
2023-05-21T07:30:36.726Z,1012.34
2023-05-21T07:31:36.826Z,1012.34
2023-05-21T07:32:36.775Z,1012.37
2023-05-21T07:33:36.782Z,1012.35
2023-05-21T07:34:36.922Z,1012.39
2023-05-21T07:35:37.416Z,1012.39
2023-05-21T07:39:36.992Z,1012.38
2023-05-21T07:40:36.997Z,1012.39
2023-05-21T07:41:37.035Z,1012.32
2023-05-21T07:42:37.352Z,1012.35
2023-05-21T07:43:37.082Z,1012.30
2023-05-21T07:44:37.114Z,1012.30
2023-05-21T07:45:37.370Z,1012.32
2023-05-21T07:47:37.275Z,1012.27
2023-05-21T07:48:37.247Z,1012.26
2023-05-21T07:49:37.572Z,1012.24
2023-05-21T07:50:37.295Z,1012.22
2023-05-21T07:51:37.321Z,1012.21
2023-05-21T07:52:37.448Z,1012.20
2023-05-21T07:53:37.396Z,1012.20
2023-05-21T07:55:37.674Z,1012.22
2023-05-21T07:56:37.772Z,1012.18
2023-05-21T07:58:37.537Z,1012.22
2023-05-21T08:00:37.594Z,1012.21
2023-05-21T08:01:37.639Z,1012.23
2023-05-21T08:02:37.761Z,1012.22
2023-05-21T08:03:38.179Z,1012.19
2023-05-21T08:04:40.782Z,1012.22
2023-05-21T08:05:37.979Z,1012.20
2023-05-21T08:06:37.773Z,1012.21
2023-05-21T08:07:37.803Z,1012.23
2023-05-21T08:08:37.827Z,1012.21
2023-05-21T08:09:37.941Z,1012.22
2023-05-21T08:10:38.201Z,1012.26
2023-05-21T08:12:37.985Z,1012.24
2023-05-21T08:13:37.985Z,1012.24
2023-05-21T08:14:38.035Z,1012.23
2023-05-21T08:15:38.212Z,1012.24
2023-05-21T08:16:38.447Z,1012.24
2023-05-21T08:17:38.126Z,1012.25
2023-05-21T08:18:38.140Z,1012.26
2023-05-21T08:19:38.273Z,1012.26
2023-05-21T08:20:38.205Z,1012.22
2023-05-21T08:21:38.227Z,1012.20
2023-05-21T08:22:38.577Z,1012.18
2023-05-21T08:23:38.280Z,1012.20
2023-05-21T08:24:38.322Z,1012.14
2023-05-21T08:26:38.373Z,1012.17
2023-05-21T08:27:38.475Z,1012.19
2023-05-21T08:28:38.722Z,1012.18
2023-05-21T08:29:38.481Z,1012.19
2023-05-21T08:30:38.495Z,1012.20
2023-05-21T08:31:38.534Z,1012.20
2023-05-21T08:32:38.685Z,1012.16
2023-05-21T08:33:38.609Z,1012.19
2023-05-21T08:34:38.617Z,1012.19
2023-05-21T08:35:39.181Z,1012.22
2023-05-21T08:36:38.678Z,1012.23
2023-05-21T08:37:38.713Z,1012.23
2023-05-21T08:38:38.739Z,1012.24
2023-05-21T08:39:38.778Z,1012.21
2023-05-21T08:40:38.795Z,1012.22
2023-05-21T08:41:38.835Z,1012.24
2023-05-21T08:42:39.161Z,1012.26
2023-05-21T08:44:39.036Z,1012.19
2023-05-21T08:45:39.202Z,1012.20
2023-05-21T08:46:38.976Z,1012.26
2023-05-21T08:47:39.033Z,1012.22
2023-05-21T08:48:39.397Z,1012.16
2023-05-21T08:49:39.320Z,1012.17
2023-05-21T08:50:39.125Z,1012.16
2023-05-21T08:51:39.129Z,1012.17
2023-05-21T08:52:39.158Z,1012.10
2023-05-21T08:53:39.196Z,1012.12
2023-05-21T08:54:39.255Z,1012.12
2023-05-21T08:55:39.258Z,1012.14
2023-05-21T08:56:39.586Z,1012.11
2023-05-21T08:57:39.312Z,1012.12
2023-05-21T08:58:39.383Z,1012.10
2023-05-21T08:59:39.391Z,1012.04
2023-05-21T09:00:39.424Z,1012.03
2023-05-21T09:01:39.503Z,1012.07
2023-05-21T09:03:39.845Z,1011.99
2023-05-21T09:05:39.556Z,1012.02
2023-05-21T09:06:39.582Z,1012.00
2023-05-21T09:07:39.627Z,1012.00
2023-05-21T09:08:39.649Z,1011.99
2023-05-21T09:10:39.717Z,1011.97
2023-05-21T09:11:39.984Z,1011.97
2023-05-21T09:12:39.790Z,1011.96
2023-05-21T09:13:39.808Z,1011.98
2023-05-21T09:14:39.833Z,1011.95
2023-05-21T09:15:39.863Z,1011.96
2023-05-21T09:16:39.943Z,1011.97
2023-05-21T09:17:39.962Z,1011.95
2023-05-21T09:18:40.255Z,1011.95
2023-05-21T09:19:40.038Z,1011.94
2023-05-21T09:20:40.019Z,1011.94
2023-05-21T09:21:40.044Z,1011.91
2023-05-21T09:22:40.076Z,1011.91
2023-05-21T09:23:40.108Z,1011.93
2023-05-21T09:24:40.137Z,1011.93
2023-05-21T09:25:40.554Z,1011.92
2023-05-21T09:26:40.213Z,1011.97
2023-05-21T09:27:40.232Z,1011.95
2023-05-21T09:28:40.260Z,1011.95
2023-05-21T09:29:40.287Z,1011.94
2023-05-21T09:30:40.609Z,1011.94
2023-05-21T09:31:40.419Z,1011.94
2023-05-21T09:33:40.691Z,1011.94
2023-05-21T09:34:40.508Z,1011.96
2023-05-21T09:35:40.475Z,1011.94
2023-05-21T09:36:40.508Z,1011.94
2023-05-21T09:37:40.539Z,1011.94
2023-05-21T09:38:40.574Z,1011.94
2023-05-21T09:39:40.592Z,1011.92
2023-05-21T09:40:40.949Z,1011.95
2023-05-21T09:41:40.668Z,1011.94
2023-05-21T09:42:40.690Z,1011.91
2023-05-21T09:43:40.718Z,1011.91
2023-05-21T09:44:40.749Z,1011.93
2023-05-21T09:45:40.789Z,1011.85
2023-05-21T09:46:41.222Z,1011.91
2023-05-21T09:47:41.188Z,1011.92
2023-05-21T09:48:40.922Z,1011.91
2023-05-21T09:49:40.919Z,1011.88
2023-05-21T09:50:40.933Z,1011.91
2023-05-21T09:51:40.968Z,1011.88
2023-05-21T09:52:42.090Z,1011.90
2023-05-21T09:53:41.030Z,1011.86
2023-05-21T09:54:41.372Z,1011.85
2023-05-21T09:55:41.090Z,1011.86
2023-05-21T09:56:41.118Z,1011.84
2023-05-21T09:57:41.153Z,1011.86
2023-05-21T09:59:41.239Z,1011.79
2023-05-21T10:00:41.268Z,1011.78
2023-05-21T10:01:41.598Z,1011.77
2023-05-21T10:02:41.402Z,1011.77
2023-05-21T10:03:41.443Z,1011.73
2023-05-21T10:04:41.466Z,1011.71
2023-05-21T10:05:41.424Z,1011.73
2023-05-21T10:06:41.429Z,1011.74
2023-05-21T10:07:41.460Z,1011.70
2023-05-21T10:08:41.747Z,1011.73
2023-05-21T10:09:41.543Z,1011.70
2023-05-21T10:10:41.547Z,1011.71
2023-05-21T10:11:41.601Z,1011.72
2023-05-21T10:12:41.616Z,1011.69
2023-05-21T10:13:41.647Z,1011.68
2023-05-21T10:14:41.674Z,1011.66
2023-05-21T10:15:42.023Z,1011.66
2023-05-21T10:16:41.845Z,1011.67
2023-05-21T10:17:41.789Z,1011.68
2023-05-21T10:18:41.808Z,1011.63
2023-05-21T10:19:41.831Z,1011.57
2023-05-21T10:21:41.916Z,1011.60
2023-05-21T10:22:42.238Z,1011.61
2023-05-21T10:23:41.956Z,1011.54
2023-05-21T10:24:41.984Z,1011.53
2023-05-21T10:26:42.045Z,1011.53
2023-05-21T10:27:42.125Z,1011.58
2023-05-21T10:28:42.115Z,1011.54
2023-05-21T10:29:42.393Z,1011.57
2023-05-21T10:30:42.176Z,1011.55
2023-05-21T10:31:42.217Z,1011.52
2023-05-21T10:33:42.269Z,1011.48
2023-05-21T10:34:42.291Z,1011.48
2023-05-21T10:35:42.334Z,1011.48
2023-05-21T10:36:42.654Z,1011.47
2023-05-21T10:37:42.411Z,1011.44
2023-05-21T10:39:42.458Z,1011.44
2023-05-21T10:40:42.496Z,1011.41
2023-05-21T10:41:42.517Z,1011.41
2023-05-21T10:42:42.542Z,1011.38
2023-05-21T10:43:42.876Z,1011.35
2023-05-21T10:44:42.610Z,1011.29
2023-05-21T10:45:42.681Z,1011.32
2023-05-21T10:46:42.667Z,1011.32
2023-05-21T10:47:42.715Z,1011.29
2023-05-21T10:48:42.734Z,1011.29
2023-05-21T10:49:42.756Z,1011.30
2023-05-21T10:50:43.096Z,1011.30
2023-05-21T10:52:42.865Z,1011.30
2023-05-21T10:53:42.909Z,1011.34
2023-05-21T10:54:42.916Z,1011.35
2023-05-21T10:55:42.951Z,1011.34
2023-05-21T10:56:42.975Z,1011.31
2023-05-21T10:57:43.015Z,1011.31
2023-05-21T10:58:43.038Z,1011.28
2023-05-21T10:59:43.079Z,1011.25
2023-05-21T11:00:43.106Z,1011.24
2023-05-21T11:01:43.287Z,1011.23
2023-05-21T11:02:43.549Z,1011.23
2023-05-21T11:03:43.319Z,1011.26
2023-05-21T11:04:43.245Z,1011.26
2023-05-21T11:05:43.268Z,1011.18
2023-05-21T11:06:43.293Z,1011.21
2023-05-21T11:07:43.336Z,1011.23
2023-05-21T11:08:43.602Z,1011.23
2023-05-21T11:09:43.405Z,1011.26
2023-05-21T11:10:43.420Z,1011.23
2023-05-21T11:11:43.451Z,1011.26
2023-05-21T11:12:43.483Z,1011.24
2023-05-21T11:13:43.513Z,1011.17
2023-05-21T11:14:43.580Z,1011.18
2023-05-21T11:15:43.869Z,1011.23
2023-05-21T11:16:43.665Z,1011.21
2023-05-21T11:17:43.678Z,1011.12
2023-05-21T11:18:43.711Z,1011.15
2023-05-21T11:19:43.883Z,1011.11
2023-05-21T11:20:43.734Z,1011.10
2023-05-21T11:21:43.766Z,1011.09
2023-05-21T11:22:44.087Z,1011.06
2023-05-21T11:23:43.822Z,1011.02
2023-05-21T11:24:43.863Z,1011.01
2023-05-21T11:25:44.003Z,1011.03
2023-05-21T11:26:43.918Z,1011.00
2023-05-21T11:27:43.943Z,1011.01
2023-05-21T11:28:43.980Z,1011.05
2023-05-21T11:29:44.357Z,1010.98
2023-05-21T11:30:44.315Z,1011.07
2023-05-21T11:31:44.106Z,1011.06
2023-05-21T11:32:44.163Z,1011.04
2023-05-21T11:33:44.151Z,1011.01
2023-05-21T11:34:44.176Z,1010.99
2023-05-21T11:36:44.237Z,1011.00
2023-05-21T11:37:44.561Z,1010.99
2023-05-21T11:38:44.291Z,1010.98
2023-05-21T11:39:44.321Z,1010.96
2023-05-21T11:40:44.354Z,1010.95
2023-05-21T11:41:44.436Z,1010.98
2023-05-21T11:42:44.419Z,1010.98
2023-05-21T11:45:44.820Z,1010.92
2023-05-21T11:46:44.618Z,1010.91
2023-05-21T11:47:44.622Z,1010.90
2023-05-21T11:48:44.609Z,1010.96
2023-05-21T11:49:44.655Z,1010.93
2023-05-21T11:50:44.674Z,1010.92
2023-05-21T11:51:45.011Z,1010.92
2023-05-21T11:52:44.736Z,1010.88
2023-05-21T11:53:44.761Z,1010.85
2023-05-21T11:54:44.794Z,1010.86
2023-05-21T11:55:44.827Z,1010.91
2023-05-21T11:56:44.859Z,1010.91
2023-05-21T11:57:44.920Z,1010.98
2023-05-21T11:58:45.221Z,1010.92
2023-05-21T11:59:44.965Z,1010.87
2023-05-21T12:00:44.981Z,1010.88
2023-05-21T12:01:45.007Z,1010.93
2023-05-21T12:02:45.150Z,1010.94
2023-05-21T12:03:45.294Z,1010.93
2023-05-21T12:04:45.105Z,1010.88
2023-05-21T12:05:45.447Z,1010.85
2023-05-21T12:06:45.172Z,1010.83
2023-05-21T12:07:45.207Z,1010.86
2023-05-21T12:08:45.243Z,1010.85
2023-05-21T12:09:45.285Z,1010.83
2023-05-21T12:10:46.265Z,1010.79
2023-05-21T12:11:45.336Z,1010.79
2023-05-21T12:12:54.955Z,1010.78
2023-05-21T12:13:45.446Z,1010.79
2023-05-21T12:14:45.461Z,1010.78
2023-05-21T12:15:45.450Z,1010.74
2023-05-21T12:16:45.529Z,1010.74
2023-05-21T12:17:45.557Z,1010.72
2023-05-21T12:18:45.567Z,1010.73
2023-05-21T12:19:45.874Z,1010.78
2023-05-21T12:20:45.613Z,1010.75
2023-05-21T12:21:45.635Z,1010.73
2023-05-21T12:22:45.691Z,1010.75
2023-05-21T12:23:45.698Z,1010.71
2023-05-21T12:24:45.745Z,1010.74
2023-05-21T12:25:45.766Z,1010.74
2023-05-21T12:26:46.052Z,1010.77
2023-05-21T12:27:45.822Z,1010.78
2023-05-21T12:28:45.855Z,1010.76
2023-05-21T12:29:45.909Z,1010.86
2023-05-21T12:30:45.917Z,1010.78
2023-05-21T12:31:45.977Z,1010.79
2023-05-21T12:32:46.021Z,1010.77
2023-05-21T12:33:46.319Z,1010.76
2023-05-21T12:34:46.069Z,1010.74
2023-05-21T12:35:46.104Z,1010.78
2023-05-21T12:36:46.101Z,1010.72
2023-05-21T12:37:46.166Z,1010.72
2023-05-21T12:38:46.165Z,1010.71
2023-05-21T12:39:46.213Z,1010.74
2023-05-21T12:40:46.538Z,1010.75
2023-05-21T12:41:46.263Z,1010.79
2023-05-21T12:42:46.304Z,1010.80
2023-05-21T12:43:46.339Z,1010.77
2023-05-21T12:44:46.360Z,1010.75
2023-05-21T12:45:46.422Z,1010.77
2023-05-21T12:46:46.414Z,1010.76
2023-05-21T12:47:46.789Z,1010.78
2023-05-21T12:48:46.487Z,1010.79
2023-05-21T12:49:46.511Z,1010.68
2023-05-21T12:50:46.547Z,1010.69
2023-05-21T12:51:46.579Z,1010.70
2023-05-21T12:52:46.631Z,1010.69
2023-05-21T12:53:46.642Z,1010.68
2023-05-21T12:54:46.975Z,1010.67
2023-05-21T12:55:46.709Z,1010.67
2023-05-21T12:56:46.768Z,1010.70
2023-05-21T12:57:46.758Z,1010.66
2023-05-21T12:58:46.802Z,1010.69
2023-05-21T12:59:46.821Z,1010.65
2023-05-21T13:00:46.965Z,1010.64
2023-05-21T13:01:47.245Z,1010.59
2023-05-21T13:02:46.951Z,1010.63
2023-05-21T13:03:46.998Z,1010.56
2023-05-21T13:04:46.980Z,1010.62
2023-05-21T13:05:47.013Z,1010.61
2023-05-21T13:06:47.039Z,1010.61
2023-05-21T13:07:47.635Z,1010.62
2023-05-21T13:08:47.400Z,1010.61
2023-05-21T13:09:47.139Z,1010.63
2023-05-21T13:10:47.175Z,1010.54
2023-05-21T13:11:47.203Z,1010.58
2023-05-21T13:12:47.255Z,1010.54
2023-05-21T13:13:47.281Z,1010.55
2023-05-21T13:14:47.592Z,1010.59
2023-05-21T13:15:47.366Z,1010.58
2023-05-21T13:16:47.357Z,1010.58
2023-05-21T13:17:49.982Z,1010.55
2023-05-21T13:18:47.473Z,1010.57
2023-05-21T13:19:47.448Z,1010.58
2023-05-21T13:20:47.491Z,1010.68
2023-05-21T13:21:47.517Z,1010.67
2023-05-21T13:22:47.610Z,1010.62